Time;durP1;ratioP1;P1;durP2;ratioP2;P2;SDS_P1;SDS_P2;PMS_P1;PMS_P2;Temp;Humidity;BMP_temperature;BMP_pressure;BME280_temperature;BME280_humidity;BME280_pressure;Samples;Min_cycle;Max_cycle;Signal;HPM_P1;HPM_P2
2022/04/22 00:00:24;;;;;;;33.38;18.58;;;10.40;99.90;;;;;;5092609;28;20048;-78
2022/04/22 00:02:50;;;;;;;31.83;19.27;;;10.50;99.90;;;;;;5092262;28;20064;-79
2022/04/22 00:05:17;;;;;;;34.53;20.15;;;10.50;99.90;;;;;;5073845;28;20024;-79
2022/04/22 00:07:42;;;;;;;33.13;19.73;;;10.50;99.90;;;;;;5092381;28;20221;-79
2022/04/22 00:10:10;;;;;;;34.78;19.73;;;10.40;99.90;;;;;;5092592;28;20369;-79
2022/04/22 00:12:35;;;;;;;30.33;18.50;;;10.40;99.90;;;;;;5091979;28;20027;-77
2022/04/22 00:15:01;;;;;;;35.55;18.17;;;10.40;99.90;;;;;;5092258;28;20028;-78
2022/04/22 00:17:26;;;;;;;29.63;17.40;;;10.30;99.90;;;;;;5091692;28;20028;-79
2022/04/22 00:19:52;;;;;;;32.50;17.75;;;10.30;99.90;;;;;;5073909;28;20065;-78
2022/04/22 00:22:17;;;;;;;30.08;17.77;;;10.40;99.90;;;;;;5091985;28;20023;-78
2022/04/22 00:24:43;;;;;;;29.48;19.20;;;10.50;99.90;;;;;;5073844;28;20024;-79
2022/04/22 00:27:08;;;;;;;29.77;18.02;;;10.50;99.90;;;;;;5073355;28;20012;-79
2022/04/22 00:29:34;;;;;;;27.60;17.80;;;10.50;99.90;;;;;;5073817;28;20023;-80
2022/04/22 00:31:59;;;;;;;30.58;18.15;;;10.50;99.90;;;;;;5091528;28;20496;-78
2022/04/22 00:34:25;;;;;;;29.90;17.52;;;10.60;99.90;;;;;;5091854;28;20028;-77
2022/04/22 00:36:50;;;;;;;35.35;20.40;;;10.60;99.90;;;;;;5091001;28;20078;-77
2022/04/22 00:39:16;;;;;;;31.67;19.35;;;10.60;99.90;;;;;;5091917;28;20023;-79
2022/04/22 00:41:42;;;;;;;32.47;19.80;;;10.50;99.90;;;;;;5091285;28;20069;-76
2022/04/22 00:44:07;;;;;;;30.25;18.00;;;10.40;99.90;;;;;;5092190;28;20032;-79
2022/04/22 00:46:33;;;;;;;28.77;18.65;;;10.40;99.90;;;;;;5091298;28;20467;-80
2022/04/22 00:48:58;;;;;;;28.17;17.67;;;10.50;99.90;;;;;;5091364;28;20103;-80
2022/04/22 00:51:24;;;;;;;29.83;18.90;;;10.50;99.90;;;;;;5091314;28;20594;-78
2022/04/22 00:53:52;;;;;;;28.23;17.75;;;10.60;99.90;;;;;;5091530;28;20032;-79
2022/04/22 00:56:18;;;;;;;31.08;19.25;;;10.50;99.90;;;;;;5091142;28;20055;-76
2022/04/22 00:58:45;;;;;;;31.88;18.85;;;10.40;99.90;;;;;;5073262;28;20380;-77
2022/04/22 01:01:11;;;;;;;31.80;19.00;;;10.40;99.90;;;;;;5091174;28;20016;-80
2022/04/22 01:03:38;;;;;;;33.83;20.02;;;10.40;99.90;;;;;;5091300;28;20055;-79
2022/04/22 01:11:35;;;;;;;28.67;17.63;;;10.50;99.90;;;;;;5091285;28;20058;-77
2022/04/22 01:14:05;;;;;;;37.00;19.17;;;10.50;99.90;;;;;;5091348;28;20418;-78
2022/04/22 01:16:30;;;;;;;33.72;19.10;;;10.40;99.90;;;;;;5090452;28;20031;-78
2022/04/22 01:18:56;;;;;;;32.08;18.77;;;10.40;99.90;;;;;;5090638;28;20016;-78
2022/04/22 01:21:22;;;;;;;31.27;18.65;;;10.40;99.90;;;;;;5090904;28;20028;-79
2022/04/22 01:23:47;;;;;;;29.63;19.23;;;10.40;99.90;;;;;;5090931;28;20480;-79
2022/04/22 01:26:14;;;;;;;32.00;19.15;;;10.40;99.90;;;;;;5090447;28;20028;-79
2022/04/22 01:28:40;;;;;;;30.13;18.80;;;10.40;99.90;;;;;;5091232;28;20032;-78
2022/04/22 01:31:07;;;;;;;31.67;19.10;;;10.30;99.90;;;;;;5090839;28;20031;-81
2022/04/22 01:33:32;;;;;;;33.38;19.45;;;10.40;99.90;;;;;;5090654;28;20028;-77
2022/04/22 01:35:58;;;;;;;34.75;20.45;;;10.40;99.90;;;;;;5074065;28;20116;-80
2022/04/22 01:38:24;;;;;;;34.42;18.98;;;10.50;99.90;;;;;;5070581;28;20017;-78
2022/04/22 01:40:50;;;;;;;32.40;19.23;;;10.50;99.90;;;;;;5070762;28;20035;-79
2022/04/22 01:43:17;;;;;;;36.72;19.58;;;10.50;99.90;;;;;;5070928;28;20028;-79
2022/04/22 01:45:43;;;;;;;35.85;19.27;;;10.40;99.90;;;;;;5070032;28;20028;-78
2022/04/22 01:48:08;;;;;;;34.83;20.05;;;10.40;99.90;;;;;;5071041;28;20024;-79
2022/04/22 01:50:34;;;;;;;33.78;19.25;;;10.30;99.90;;;;;;5070618;28;20024;-77
2022/04/22 01:52:59;;;;;;;35.67;20.05;;;10.30;99.90;;;;;;5052594;28;20087;-78
2022/04/22 01:55:26;;;;;;;33.13;18.98;;;10.40;99.90;;;;;;5069783;28;20028;-78
2022/04/22 01:57:53;;;;;;;34.15;18.70;;;10.30;99.90;;;;;;5070609;28;20063;-78
2022/04/22 02:00:18;;;;;;;33.53;19.33;;;10.30;99.90;;;;;;5070276;28;20040;-80
2022/04/22 02:02:44;;;;;;;33.92;18.92;;;10.30;99.90;;;;;;5070114;28;20033;-79
2022/04/22 02:05:09;;;;;;;35.28;20.17;;;10.40;99.90;;;;;;5070265;28;20052;-80
2022/04/22 02:07:35;;;;;;;34.83;20.45;;;10.50;99.90;;;;;;5070052;28;20020;-80
2022/04/22 02:10:00;;;;;;;35.85;20.85;;;10.40;99.90;;;;;;5070965;28;20033;-78
2022/04/22 02:12:26;;;;;;;32.80;18.92;;;10.30;99.90;;;;;;5052328;28;20023;-77
2022/04/22 02:14:51;;;;;;;35.85;19.58;;;10.40;99.90;;;;;;5070805;28;20032;-80
2022/04/22 02:17:18;;;;;;;32.25;19.80;;;10.50;99.90;;;;;;5069740;28;20112;-78
2022/04/22 02:19:44;;;;;;;35.58;18.98;;;10.50;99.90;;;;;;5070507;28;20021;-81
2022/04/22 02:22:09;;;;;;;36.65;20.40;;;10.60;99.90;;;;;;5070029;28;20028;-80
2022/04/22 02:24:35;;;;;;;35.88;20.85;;;10.60;99.90;;;;;;5070354;28;20043;-79
2022/04/22 02:29:44;;;;;;;34.50;19.05;;;10.40;99.90;;;;;;5071421;28;20043;-79
2022/04/22 02:32:10;;;;;;;37.47;20.20;;;10.40;99.90;;;;;;5055773;28;20404;-80
2022/04/22 02:34:35;;;;;;;35.42;20.50;;;10.40;99.90;;;;;;5073963;28;20085;-79
2022/04/22 02:37:01;;;;;;;36.70;20.45;;;10.20;99.90;;;;;;5073313;28;20055;-80
2022/04/22 02:39:26;;;;;;;34.85;19.45;;;10.20;99.90;;;;;;5056183;28;20028;-79
2022/04/22 02:47:21;;;;;;;39.40;21.00;;;10.30;99.90;;;;;;5073390;28;20160;-77
2022/04/22 02:49:46;;;;;;;37.47;19.70;;;10.30;99.90;;;;;;5073678;28;20081;-81
2022/04/22 02:52:13;;;;;;;38.00;19.92;;;10.30;99.90;;;;;;5073601;28;20453;-80
2022/04/22 02:54:38;;;;;;;34.42;19.38;;;10.30;99.90;;;;;;5073601;28;20028;-78
2022/04/22 02:57:05;;;;;;;36.72;19.80;;;10.40;99.90;;;;;;5055005;28;20453;-80
2022/04/22 02:59:31;;;;;;;32.72;19.90;;;10.30;99.90;;;;;;5073569;28;20035;-79
2022/04/22 03:01:57;;;;;;;34.03;19.02;;;10.40;99.90;;;;;;5073367;28;20097;-77
2022/04/22 03:04:22;;;;;;;35.20;20.63;;;10.50;99.90;;;;;;5073607;28;20032;-80
2022/04/22 03:06:48;;;;;;;35.17;20.40;;;10.50;99.90;;;;;;5054748;28;20040;-80
2022/04/22 03:09:13;;;;;;;39.25;21.52;;;10.50;99.90;;;;;;5073493;28;20130;-79
2022/04/22 03:11:39;;;;;;;36.67;21.33;;;10.50;99.90;;;;;;5073354;28;20028;-78
2022/04/22 03:14:05;;;;;;;36.13;19.92;;;10.40;99.90;;;;;;5073412;28;20025;-78
2022/04/22 03:16:31;;;;;;;34.55;19.95;;;10.40;99.90;;;;;;5072364;28;20039;-79
2022/04/22 03:18:57;;;;;;;35.22;20.08;;;10.50;99.90;;;;;;5073530;28;20021;-78
2022/04/22 03:21:23;;;;;;;32.83;18.95;;;10.40;99.90;;;;;;5072671;28;20020;-78
2022/04/22 03:23:49;;;;;;;32.55;18.38;;;10.30;99.90;;;;;;5055106;28;20024;-79
2022/04/22 03:26:14;;;;;;;37.75;20.15;;;10.40;99.90;;;;;;5054601;28;20032;-77
2022/04/22 03:28:40;;;;;;;36.67;21.63;;;10.50;99.90;;;;;;5073061;28;20844;-79
2022/04/22 03:31:05;;;;;;;36.50;20.23;;;10.50;99.90;;;;;;5072928;28;20027;-79
2022/04/22 03:33:31;;;;;;;34.65;19.48;;;10.50;99.90;;;;;;5072939;28;20035;-79
2022/04/22 03:35:57;;;;;;;38.40;21.45;;;10.50;99.90;;;;;;5072144;28;20029;-79
2022/04/22 03:38:23;;;;;;;36.80;22.08;;;10.50;99.90;;;;;;5054925;28;20033;-80
2022/04/22 03:40:50;;;;;;;41.35;22.67;;;10.50;99.90;;;;;;5071556;28;20449;-80
2022/04/22 03:43:17;;;;;;;36.65;20.50;;;10.50;99.90;;;;;;5072277;28;20021;-81
2022/04/22 03:45:43;;;;;;;33.60;20.85;;;10.60;99.90;;;;;;5071659;28;20120;-80
2022/04/22 03:48:09;;;;;;;41.97;22.33;;;10.60;99.90;;;;;;5054509;28;20521;-81
2022/04/22 03:50:36;;;;;;;35.67;22.00;;;10.50;99.90;;;;;;5072275;28;20024;-78
2022/04/22 03:53:03;;;;;;;33.35;20.13;;;10.50;99.90;;;;;;5072278;28;20031;-78
2022/04/22 03:55:28;;;;;;;37.75;21.23;;;10.50;99.90;;;;;;5071547;28;20052;-78
2022/04/22 03:58:12;;;;;;;37.03;21.90;;;10.50;99.90;;;;;;5072367;28;20051;-80
2022/04/22 04:00:49;;;;;;;37.60;22.33;;;10.60;99.90;;;;;;5072206;28;20100;-79
2022/04/22 04:03:20;;;;;;;36.30;19.75;;;10.60;99.90;;;;;;5054313;28;20546;-81
2022/04/22 04:05:50;;;;;;;34.80;20.52;;;10.60;99.90;;;;;;5071262;28;20033;-80
2022/04/22 04:08:20;;;;;;;35.38;21.67;;;10.70;99.90;;;;;;5072246;28;20019;-76
2022/04/22 04:16:15;;;;;;;40.00;21.77;;;10.80;99.90;;;;;;5071496;28;20085;-79
2022/04/22 04:18:41;;;;;;;36.00;21.27;;;10.80;99.90;;;;;;5071779;28;20020;-80
2022/04/22 04:23:53;;;;;;;35.08;20.02;;;10.90;99.90;;;;;;5072291;28;20380;-79
2022/04/22 04:26:30;;;;;;;35.88;20.85;;;10.90;99.90;;;;;;5071325;28;20061;-81
2022/04/22 04:28:55;;;;;;;38.40;21.38;;;10.90;99.90;;;;;;5053899;28;20028;-80
2022/04/22 04:31:21;;;;;;;34.35;20.60;;;10.90;99.90;;;;;;5070057;28;20158;-80
2022/04/22 04:33:47;;;;;;;36.15;21.33;;;10.80;99.90;;;;;;5071349;28;20020;-79
2022/04/22 04:36:13;;;;;;;30.83;19.75;;;10.80;99.90;;;;;;5070938;28;20032;-79
2022/04/22 04:38:40;;;;;;;36.92;22.42;;;10.80;99.90;;;;;;5071435;28;20032;-80
2022/04/22 04:41:08;;;;;;;37.10;21.45;;;10.80;99.90;;;;;;5071775;28;20151;-79
2022/04/22 04:43:39;;;;;;;35.85;21.45;;;10.90;99.90;;;;;;5071272;28;20081;-80
2022/04/22 04:46:06;;;;;;;34.65;20.63;;;10.90;99.90;;;;;;5052721;28;20357;-79
2022/04/22 04:48:31;;;;;;;33.10;21.35;;;10.90;99.90;;;;;;5071257;28;20079;-80
2022/04/22 04:50:57;;;;;;;35.08;20.83;;;10.90;99.90;;;;;;5071113;28;20413;-78
2022/04/22 04:53:23;;;;;;;34.58;19.98;;;11.00;99.90;;;;;;5070490;28;20036;-80
2022/04/22 04:55:50;;;;;;;35.58;21.83;;;10.90;99.90;;;;;;5070544;28;20458;-81
2022/04/22 04:58:16;;;;;;;33.13;19.77;;;11.00;99.90;;;;;;5071388;28;20028;-78
2022/04/22 05:00:44;;;;;;;33.40;19.50;;;11.00;99.90;;;;;;5070630;28;20082;-81
2022/04/22 05:03:10;;;;;;;34.67;20.67;;;11.00;99.90;;;;;;5071272;28;20055;-81
2022/04/22 05:05:36;;;;;;;34.28;20.35;;;11.00;99.90;;;;;;5070090;28;20024;-78
2022/04/22 05:08:01;;;;;;;37.38;21.88;;;10.80;99.90;;;;;;5071143;28;20135;-78
2022/04/22 05:10:29;;;;;;;35.03;21.58;;;10.80;99.90;;;;;;5070898;28;20038;-80
2022/04/22 05:12:56;;;;;;;29.80;19.45;;;10.80;99.90;;;;;;5070737;28;20415;-78
2022/04/22 05:15:22;;;;;;;33.65;20.88;;;10.90;99.90;;;;;;5070154;28;20082;-80
2022/04/22 05:17:49;;;;;;;35.28;21.23;;;10.90;99.90;;;;;;5070832;28;20023;-81
2022/04/22 05:20:17;;;;;;;31.02;19.92;;;10.90;99.90;;;;;;5070768;28;20082;-81
2022/04/22 05:22:43;;;;;;;28.80;19.58;;;11.00;99.90;;;;;;5070578;28;20038;-79
2022/04/22 05:25:10;;;;;;;40.70;21.35;;;11.00;99.90;;;;;;5070637;28;20103;-79
2022/04/22 05:27:36;;;;;;;33.47;18.85;;;10.90;99.90;;;;;;5070511;28;20099;-79
2022/04/22 05:32:48;;;;;;;36.63;21.95;;;10.90;99.90;;;;;;5070483;28;20388;-79
2022/04/22 05:35:16;;;;;;;34.58;21.48;;;10.80;99.90;;;;;;5052324;28;20028;-78
2022/04/22 05:37:58;;;;;;;37.63;22.75;;;10.70;99.90;;;;;;5070274;28;20111;-78
2022/04/22 05:40:26;;;;;;;34.35;21.40;;;10.80;99.90;;;;;;5069542;28;20081;-78
2022/04/22 05:42:53;;;;;;;34.42;22.02;;;10.70;99.90;;;;;;5070256;28;20036;-79
2022/04/22 05:45:20;;;;;;;38.63;21.38;;;10.70;99.90;;;;;;5069926;28;20048;-78
2022/04/22 05:47:46;;;;;;;30.73;20.45;;;10.90;99.90;;;;;;5070412;28;20522;-79
2022/04/22 05:50:14;;;;;;;35.63;22.15;;;10.80;99.90;;;;;;5070511;28;20111;-78
2022/04/22 05:52:40;;;;;;;35.85;20.90;;;11.00;99.90;;;;;;5070022;28;20047;-78
2022/04/22 05:55:11;;;;;;;31.25;20.13;;;11.10;99.90;;;;;;5070386;28;20078;-78
2022/04/22 05:57:37;;;;;;;34.92;21.52;;;11.10;99.90;;;;;;5070058;28;20024;-78
2022/04/22 06:00:08;;;;;;;32.95;19.95;;;11.20;99.90;;;;;;5070560;28;20093;-79
2022/04/22 06:02:34;;;;;;;35.13;21.87;;;11.40;99.90;;;;;;5069959;28;20074;-78
2022/04/22 06:05:00;;;;;;;36.15;21.95;;;11.50;99.90;;;;;;5070519;28;20020;-78
2022/04/22 06:07:26;;;;;;;33.25;21.00;;;11.60;99.90;;;;;;5069369;28;20021;-79
2022/04/22 06:12:36;;;;;;;32.35;21.08;;;11.70;99.90;;;;;;5070110;28;20027;-77
2022/04/22 06:15:04;;;;;;;35.20;21.98;;;12.00;99.90;;;;;;5070311;28;20670;-80
2022/04/22 06:17:30;;;;;;;32.10;21.08;;;12.10;99.50;;;;;;5051496;28;20097;-77
2022/04/22 06:19:57;;;;;;;29.75;21.05;;;12.30;99.20;;;;;;5070435;28;20025;-80
2022/04/22 06:22:23;;;;;;;33.08;21.50;;;12.50;98.50;;;;;;5070216;28;20021;-77
2022/04/22 06:24:48;;;;;;;32.55;22.67;;;12.40;98.10;;;;;;5070080;28;20108;-81
2022/04/22 06:27:23;;;;;;;36.33;22.88;;;12.40;98.50;;;;;;5069541;28;20149;-78
2022/04/22 06:29:49;;;;;;;32.53;22.70;;;12.40;97.70;;;;;;5069910;28;20024;-79
2022/04/22 06:32:15;;;;;;;31.35;21.35;;;12.50;98.00;;;;;;5069849;28;20025;-77
2022/04/22 06:34:40;;;;;;;35.28;23.45;;;12.50;98.00;;;;;;5069802;28;20032;-79
2022/04/22 06:37:06;;;;;;;35.08;22.80;;;12.60;97.70;;;;;;5069355;28;20372;-78
2022/04/22 06:45:46;;;;;;;36.25;23.90;;;12.70;97.50;;;;;;5069902;28;20071;-78
2022/04/22 06:47:47;;;;;;;35.08;22.23;;;12.60;97.30;;;;;;5070041;28;20086;-77
2022/04/22 06:50:17;;;;;;;36.22;23.75;;;12.70;97.10;;;;;;5051855;28;20028;-80
2022/04/22 06:52:43;;;;;;;36.05;23.17;;;12.60;97.30;;;;;;5051693;28;20024;-77
2022/04/22 06:55:09;;;;;;;35.25;23.85;;;12.60;97.30;;;;;;5069898;28;20024;-80
2022/04/22 06:57:37;;;;;;;34.97;24.20;;;12.60;97.20;;;;;;5069099;28;20017;-79
2022/04/22 07:00:03;;;;;;;35.75;22.80;;;12.60;97.80;;;;;;5051782;28;20461;-78
2022/04/22 07:02:30;;;;;;;34.92;21.90;;;12.60;97.30;;;;;;5069131;28;20023;-77
2022/04/22 07:04:56;;;;;;;37.97;23.42;;;12.70;96.70;;;;;;5068566;28;20025;-77
2022/04/22 07:07:21;;;;;;;36.22;23.77;;;13.00;96.70;;;;;;5068889;28;20032;-80
2022/04/22 07:09:47;;;;;;;30.02;20.88;;;13.10;96.40;;;;;;5069791;28;20364;-78
2022/04/22 07:12:13;;;;;;;33.17;22.20;;;13.20;96.00;;;;;;5069391;28;20538;-77
2022/04/22 07:14:42;;;;;;;33.70;21.85;;;13.30;95.90;;;;;;5069494;28;20017;-79
2022/04/22 07:17:09;;;;;;;32.38;20.95;;;13.30;95.30;;;;;;5054156;28;20601;-78
2022/04/22 07:19:35;;;;;;;31.90;22.88;;;13.40;95.10;;;;;;5073100;28;20467;-78
2022/04/22 07:22:00;;;;;;;29.70;21.35;;;13.60;95.60;;;;;;5072991;28;20028;-78
2022/04/22 07:24:26;;;;;;;32.00;21.77;;;13.70;95.10;;;;;;5073267;28;20031;-80
2022/04/22 07:26:54;;;;;;;30.15;21.02;;;14.00;95.10;;;;;;5072259;28;20028;-78
2022/04/22 07:29:21;;;;;;;32.25;21.95;;;14.10;94.20;;;;;;5073259;28;20108;-77
2022/04/22 07:31:47;;;;;;;31.42;20.10;;;14.00;94.70;;;;;;5072890;28;20471;-78
2022/04/22 07:34:13;;;;;;;32.25;20.83;;;14.00;94.10;;;;;;5072648;28;20120;-77
2022/04/22 07:36:39;;;;;;;31.85;20.80;;;13.90;94.30;;;;;;5072102;28;20059;-78
2022/04/22 07:39:04;;;;;;;30.42;21.85;;;14.10;94.70;;;;;;5072765;28;20104;-80
2022/04/22 07:41:33;;;;;;;28.17;19.85;;;14.20;93.60;;;;;;5072651;28;20047;-78
2022/04/22 07:46:47;;;;;;;29.17;19.02;;;14.40;93.20;;;;;;5072112;28;20120;-80
2022/04/22 07:49:13;;;;;;;28.00;18.92;;;14.20;93.50;;;;;;5072574;28;20365;-78
2022/04/22 07:51:42;;;;;;;26.63;18.30;;;14.30;93.40;;;;;;5072318;28;20103;-78
2022/04/22 07:54:08;;;;;;;25.35;18.73;;;14.40;93.20;;;;;;5072411;28;20028;-80
2022/04/22 07:56:33;;;;;;;26.10;18.90;;;14.50;92.90;;;;;;5071601;28;20105;-81
2022/04/22 07:58:59;;;;;;;24.90;17.88;;;14.40;93.00;;;;;;5072440;28;20032;-77
2022/04/22 08:01:25;;;;;;;26.77;17.95;;;14.50;93.20;;;;;;5072425;28;20056;-79
2022/04/22 08:03:53;;;;;;;25.90;17.58;;;14.60;92.70;;;;;;5072348;28;20074;-78
2022/04/22 08:06:19;;;;;;;28.67;18.40;;;14.30;92.90;;;;;;5071764;28;20012;-79
2022/04/22 08:08:44;;;;;;;30.08;18.08;;;14.40;92.90;;;;;;5072352;28;20578;-78
2022/04/22 08:11:10;;;;;;;25.45;17.50;;;14.20;93.20;;;;;;5054076;28;20035;-79
2022/04/22 08:13:35;;;;;;;25.08;16.98;;;14.10;93.10;;;;;;5072143;28;20535;-80
2022/04/22 08:16:01;;;;;;;24.13;16.08;;;14.20;93.30;;;;;;5053737;28;20053;-78
2022/04/22 08:18:26;;;;;;;22.20;15.20;;;14.20;92.70;;;;;;5072210;28;20051;-79
2022/04/22 08:20:52;;;;;;;23.63;15.55;;;14.20;92.80;;;;;;5053556;28;20020;-78
2022/04/22 08:23:20;;;;;;;19.42;14.52;;;14.40;92.90;;;;;;5070612;28;20033;-80
2022/04/22 08:25:45;;;;;;;21.05;14.32;;;14.50;92.40;;;;;;5071191;28;20101;-80
2022/04/22 08:28:11;;;;;;;20.08;14.15;;;14.50;92.40;;;;;;5071039;28;20055;-80
2022/04/22 08:30:36;;;;;;;19.80;14.73;;;14.60;92.70;;;;;;5071529;28;20032;-78
2022/04/22 08:33:02;;;;;;;20.63;13.45;;;14.80;92.90;;;;;;5071521;28;20028;-81
2022/04/22 08:35:28;;;;;;;20.83;13.43;;;15.00;91.50;;;;;;5071089;28;20039;-78
2022/04/22 08:37:54;;;;;;;21.40;14.98;;;15.00;92.30;;;;;;5071728;28;20020;-79
2022/04/22 08:40:20;;;;;;;18.63;14.48;;;14.80;92.50;;;;;;5070558;28;20024;-81
2022/04/22 08:42:46;;;;;;;19.80;14.30;;;14.60;93.10;;;;;;5071224;28;20109;-79
2022/04/22 08:45:12;;;;;;;20.35;15.40;;;14.40;93.30;;;;;;5071565;28;20024;-81
2022/04/22 08:50:29;;;;;;;19.30;12.18;;;14.50;93.00;;;;;;5071824;28;20031;-78
2022/04/22 08:53:05;;;;;;;18.90;13.15;;;14.50;92.30;;;;;;5070920;28;20025;-80
2022/04/22 08:55:32;;;;;;;17.85;14.20;;;14.70;92.50;;;;;;5052527;28;20043;-79
2022/04/22 08:57:59;;;;;;;18.02;13.35;;;14.80;92.50;;;;;;5071401;28;20020;-79
2022/04/22 09:00:27;;;;;;;19.80;13.40;;;14.80;92.80;;;;;;5053206;28;20070;-79
2022/04/22 09:02:57;;;;;;;18.25;12.93;;;15.00;92.40;;;;;;5070720;28;20112;-81
2022/04/22 09:05:24;;;;;;;16.95;12.77;;;15.10;92.10;;;;;;5070401;28;20048;-78
2022/04/22 09:07:51;;;;;;;16.75;12.60;;;15.30;91.80;;;;;;5070726;28;20036;-81
2022/04/22 09:10:17;;;;;;;14.70;11.77;;;15.50;91.90;;;;;;5071116;28;20380;-81
2022/04/22 09:12:51;;;;;;;17.63;12.07;;;15.60;91.40;;;;;;5070486;28;20108;-79
2022/04/22 09:15:17;;;;;;;13.63;10.25;;;15.90;91.50;;;;;;5070796;28;20043;-81
2022/04/22 09:17:42;;;;;;;14.52;10.90;;;16.00;92.00;;;;;;5071240;28;20024;-79
2022/04/22 09:20:13;;;;;;;14.80;10.68;;;16.10;90.70;;;;;;5070830;28;20051;-79
2022/04/22 09:22:38;;;;;;;14.77;11.57;;;16.00;90.80;;;;;;5052584;28;20455;-79
2022/04/22 09:25:07;;;;;;;12.85;10.95;;;15.90;91.00;;;;;;5070708;28;20100;-80
2022/04/22 09:27:35;;;;;;;12.27;9.10;;;15.90;90.90;;;;;;5070224;28;20025;-81
2022/04/22 09:30:02;;;;;;;17.10;11.93;;;15.80;90.70;;;;;;5070607;28;20108;-79
2022/04/22 09:32:30;;;;;;;13.05;10.02;;;15.60;91.00;;;;;;5052552;28;20032;-80
2022/04/22 09:34:58;;;;;;;13.85;10.02;;;15.70;91.30;;;;;;5052526;28;20024;-80
2022/04/22 09:42:58;;;;;;;14.73;10.55;;;16.00;90.50;;;;;;5070653;28;20385;-81
2022/04/22 09:45:35;;;;;;;11.75;9.20;;;16.00;90.70;;;;;;5051997;28;20021;-79
2022/04/22 09:48:01;;;;;;;12.07;9.18;;;16.00;90.00;;;;;;5052639;28;20158;-79
2022/04/22 09:51:00;;;;;;;15.93;10.32;;;16.30;90.80;;;;;;5070527;28;20107;-81
2022/04/22 09:53:33;;;;;;;16.00;10.75;;;16.30;90.00;;;;;;5037127;28;20032;-81
2022/04/22 09:56:05;;;;;;;14.57;10.18;;;16.30;89.50;;;;;;5070284;28;20031;-79
2022/04/22 09:58:31;;;;;;;13.05;10.00;;;16.00;90.40;;;;;;5070560;28;20024;-81
2022/04/22 10:00:59;;;;;;;13.32;10.00;;;16.00;90.40;;;;;;5070541;28;20036;-80
2022/04/22 10:03:36;;;;;;;13.88;10.25;;;16.00;90.60;;;;;;5070732;28;20067;-82
2022/04/22 10:06:03;;;;;;;15.38;10.52;;;16.00;90.60;;;;;;5069756;28;20368;-81
2022/04/22 10:08:36;;;;;;;14.63;10.07;;;15.90;90.50;;;;;;5070331;28;20487;-80
2022/04/22 10:11:04;;;;;;;13.70;10.68;;;16.00;90.80;;;;;;5070053;28;20135;-79
2022/04/22 10:13:46;;;;;;;14.77;9.57;;;15.80;90.30;;;;;;5052177;28;20369;-81
2022/04/22 10:16:13;;;;;;;13.57;8.98;;;15.70;91.00;;;;;;5069520;28;20078;-80
2022/04/22 10:18:40;;;;;;;13.60;9.20;;;15.60;90.70;;;;;;5070243;28;20032;-80
2022/04/22 10:21:06;;;;;;;10.52;7.78;;;15.70;90.40;;;;;;5069939;28;20027;-79
2022/04/22 10:23:32;;;;;;;13.43;8.48;;;15.60;90.30;;;;;;5069990;28;20025;-80
2022/04/22 10:25:59;;;;;;;12.15;8.20;;;15.40;90.70;;;;;;5069921;28;20035;-80
2022/04/22 10:28:27;;;;;;;9.70;7.47;;;15.30;90.20;;;;;;5070208;28;20022;-80
2022/04/22 10:30:55;;;;;;;11.75;8.30;;;15.40;91.20;;;;;;5069668;28;20028;-79
2022/04/22 10:33:25;;;;;;;11.88;6.85;;;15.50;90.80;;;;;;5069959;28;20060;-81
2022/04/22 10:36:00;;;;;;;9.45;7.38;;;15.70;90.50;;;;;;5051429;28;20067;-79
2022/04/22 10:38:32;;;;;;;8.80;6.45;;;15.90;90.80;;;;;;5069991;28;20028;-77
2022/04/22 10:41:01;;;;;;;8.82;6.85;;;16.10;89.10;;;;;;5069770;28;20067;-79
2022/04/22 10:43:27;;;;;;;8.48;6.30;;;16.40;88.50;;;;;;5070025;28;20028;-82
2022/04/22 10:48:39;;;;;;;12.43;8.32;;;16.80;88.10;;;;;;5069832;28;20136;-80
2022/04/22 10:51:05;;;;;;;10.23;8.18;;;16.90;87.90;;;;;;5071186;28;20096;-81
2022/04/22 10:53:39;;;;;;;11.18;8.63;;;16.90;88.00;;;;;;5073391;28;20488;-79
2022/04/22 10:56:23;;;;;;;12.63;9.35;;;17.10;88.10;;;;;;5073468;28;20483;-81
2022/04/22 10:59:15;;;;;;;9.48;8.07;;;17.10;88.80;;;;;;5071918;28;20063;-80
2022/04/22 11:01:42;;;;;;;11.38;8.45;;;17.10;88.80;;;;;;5073009;28;20031;-79
2022/04/22 11:04:23;;;;;;;11.68;8.68;;;17.20;87.40;;;;;;5073283;28;20032;-80
2022/04/22 11:06:48;;;;;;;11.45;9.43;;;17.10;88.20;;;;;;5072673;28;20672;-80
2022/04/22 11:09:28;;;;;;;15.98;8.75;;;17.00;88.30;;;;;;5073281;28;20033;-79
2022/04/22 11:11:54;;;;;;;13.98;11.50;;;16.80;88.20;;;;;;5073121;28;20035;-80
2022/04/22 11:14:29;;;;;;;12.18;9.55;;;16.80;88.80;;;;;;5073266;28;20052;-80
2022/04/22 11:17:15;;;;;;;12.73;9.73;;;16.70;89.70;;;;;;5072893;28;20372;-79
2022/04/22 11:19:57;;;;;;;14.30;9.90;;;16.80;89.00;;;;;;5072704;28;20372;-81
2022/04/22 11:22:58;;;;;;;12.00;8.77;;;16.60;89.20;;;;;;5073271;28;20043;-80
2022/04/22 11:25:29;;;;;;;13.65;10.30;;;16.70;89.60;;;;;;5072476;28;20036;-81
2022/04/22 11:27:55;;;;;;;14.18;9.77;;;16.60;89.60;;;;;;5073024;28;20039;-81
2022/04/22 11:30:22;;;;;;;10.82;9.05;;;16.80;88.20;;;;;;5073211;28;20043;-79
2022/04/22 11:32:51;;;;;;;11.13;9.52;;;16.60;89.60;;;;;;5071106;28;20075;-78
2022/04/22 11:35:20;;;;;;;15.38;9.23;;;16.50;88.50;;;;;;5072357;28;20035;-81
2022/04/22 11:37:56;;;;;;;12.52;8.95;;;16.40;89.40;;;;;;5072495;28;21050;-81
2022/04/22 11:40:22;;;;;;;13.93;11.10;;;16.50;89.50;;;;;;5072907;28;20457;-80
2022/04/22 11:42:49;;;;;;;12.50;10.40;;;16.20;89.40;;;;;;5072112;28;20035;-79
2022/04/22 11:45:16;;;;;;;12.95;9.93;;;16.10;90.40;;;;;;5072240;28;20086;-80
2022/04/22 11:47:42;;;;;;;15.77;11.07;;;16.30;90.60;;;;;;5072353;28;20074;-80
2022/04/22 11:50:09;;;;;;;16.73;11.00;;;16.20;90.00;;;;;;5072843;28;20069;-79
2022/04/22 11:52:36;;;;;;;13.77;10.43;;;16.00;90.40;;;;;;5072058;28;20051;-79
2022/04/22 11:55:04;;;;;;;14.15;10.82;;;16.10;90.40;;;;;;5072601;28;20108;-81
2022/04/22 11:57:37;;;;;;;13.73;10.60;;;16.30;90.30;;;;;;5071454;28;20368;-81
2022/04/22 12:05:37;;;;;;;17.27;10.52;;;16.60;90.10;;;;;;5071514;28;20027;-80
2022/04/22 12:08:08;;;;;;;16.00;10.75;;;16.50;90.10;;;;;;5072119;28;20020;-81
2022/04/22 12:10:34;;;;;;;12.90;9.80;;;16.50;90.70;;;;;;5072410;28;20060;-80
2022/04/22 12:13:01;;;;;;;11.48;9.75;;;16.70;89.80;;;;;;5071856;28;20020;-80
2022/04/22 12:15:28;;;;;;;10.93;9.50;;;16.70;88.30;;;;;;5071375;28;20033;-80
2022/04/22 12:17:53;;;;;;;13.40;10.10;;;16.90;90.50;;;;;;5071926;28;20377;-80
2022/04/22 12:20:19;;;;;;;15.15;9.13;;;17.20;86.00;;;;;;5071721;28;20013;-81
2022/04/22 12:22:48;;;;;;;11.48;9.30;;;16.90;87.70;;;;;;5053463;28;20070;-82
2022/04/22 12:25:16;;;;;;;11.00;9.48;;;17.00;87.20;;;;;;5071467;28;20035;-83
2022/04/22 12:27:43;;;;;;;15.48;10.75;;;17.10;87.20;;;;;;5071785;28;20107;-79
2022/04/22 12:30:14;;;;;;;19.55;10.63;;;16.80;87.40;;;;;;5071671;28;20039;-80
2022/04/22 12:32:41;;;;;;;12.48;10.18;;;16.70;88.10;;;;;;5071443;28;20264;-80
2022/04/22 12:35:13;;;;;;;11.70;10.27;;;16.70;87.60;;;;;;5071354;28;20029;-81
2022/04/22 12:37:42;;;;;;;;;;;16.70;88.80;;;;;;5071719;28;20091;-80
2022/04/22 12:40:09;;;;;;;12.55;9.93;;;16.60;88.80;;;;;;5071546;28;19931;-81
2022/04/22 12:42:35;;;;;;;12.30;9.40;;;16.50;89.30;;;;;;5071199;28;20021;-79
2022/04/22 12:54:06;;;;;;;9.95;7.95;;;16.80;87.00;;;;;;5071200;28;20082;-80
2022/04/22 12:56:31;;;;;;;7.60;6.32;;;17.10;86.10;;;;;;5070181;28;20060;-79
2022/04/22 12:59:02;;;;;;;9.10;7.15;;;17.40;87.00;;;;;;5071212;28;20048;-81
2022/04/22 13:01:37;;;;;;;8.32;7.22;;;17.80;84.60;;;;;;5070680;28;20021;-82
2022/04/22 13:04:03;;;;;;;11.23;7.30;;;18.00;85.20;;;;;;5071530;28;20075;-82
2022/04/22 13:06:49;;;;;;;12.32;7.82;;;18.30;84.40;;;;;;5069723;28;20025;-80
2022/04/22 13:09:16;;;;;;;10.20;7.60;;;18.50;82.20;;;;;;5071201;28;20039;-80
2022/04/22 13:11:46;;;;;;;11.75;7.97;;;18.50;84.50;;;;;;5061425;28;20033;-80
2022/04/22 13:14:12;;;;;;;9.38;7.93;;;18.40;83.50;;;;;;5060668;28;20035;-81
2022/04/22 13:16:38;;;;;;;12.00;7.35;;;18.50;83.00;;;;;;5088542;28;20073;-82
2022/04/22 13:19:04;;;;;;;11.45;8.45;;;18.50;83.90;;;;;;5091169;28;20140;-80
2022/04/22 13:21:30;;;;;;;13.00;9.25;;;18.60;82.70;;;;;;5090515;28;20123;-82
2022/04/22 13:23:56;;;;;;;9.45;7.07;;;18.30;82.70;;;;;;5089934;28;20077;-79
2022/04/22 13:26:24;;;;;;;13.27;8.70;;;18.10;83.40;;;;;;5090356;28;20135;-79
2022/04/22 13:28:50;;;;;;;11.23;7.95;;;17.80;83.20;;;;;;5090671;28;20023;-79
2022/04/22 13:31:16;;;;;;;10.60;8.52;;;17.50;83.40;;;;;;5090612;28;20020;-80
2022/04/22 13:33:41;;;;;;;10.65;8.00;;;17.40;83.80;;;;;;5090534;28;20020;-79